Time;durP1;ratioP1;P1;durP2;ratioP2;P2;SDS_P1;SDS_P2;PMS_P1;PMS_P2;Temp;Humidity;BMP_temperature;BMP_pressure;BME280_temperature;BME280_humidity;BME280_pressure;Samples;Min_cycle;Max_cycle;Signal;HPM_P1;HPM_P2
2022/03/17 00:00:11;;;;;;;38.53;25.17;;;8.70;1.00;;;;;;5066602;28;20582;-58
2022/03/17 00:02:38;;;;;;;34.23;24.33;;;8.50;1.00;;;;;;5068850;28;20517;-59
2022/03/17 00:05:05;;;;;;;34.70;23.63;;;8.60;1.00;;;;;;5069352;28;20499;-60
2022/03/17 00:07:31;;;;;;;36.47;23.50;;;8.60;1.00;;;;;;5050911;28;20538;-59
2022/03/17 00:09:57;;;;;;;34.80;23.93;;;8.60;1.00;;;;;;5062349;28;20499;-59
2022/03/17 00:12:23;;;;;;;37.00;25.00;;;8.70;1.00;;;;;;5066017;28;20190;-60
2022/03/17 00:14:50;;;;;;;33.80;23.90;;;8.60;1.00;;;;;;5068991;28;20556;-59
2022/03/17 00:17:16;;;;;;;33.80;23.27;;;8.50;1.00;;;;;;5067789;28;20187;-59
2022/03/17 00:19:42;;;;;;;35.27;23.13;;;8.50;1.00;;;;;;5069480;28;21208;-60
2022/03/17 00:22:08;;;;;;;38.80;25.63;;;8.30;1.00;;;;;;5069134;28;20198;-60
2022/03/17 00:24:35;;;;;;;30.23;23.27;;;8.40;1.00;;;;;;5068810;28;20187;-61
2022/03/17 00:27:02;;;;;;;30.00;22.33;;;8.30;1.00;;;;;;5068266;28;20444;-58
2022/03/17 00:29:28;;;;;;;33.17;23.07;;;8.20;1.00;;;;;;5067518;28;20453;-59
2022/03/17 00:31:53;;;;;;;38.73;24.20;;;8.30;1.00;;;;;;5067453;28;20453;-59
2022/03/17 00:34:19;;;;;;;36.97;24.60;;;8.30;1.00;;;;;;5067800;28;20445;-59
2022/03/17 00:36:47;;;;;;;39.63;25.70;;;8.20;1.00;;;;;;5070761;28;20669;-60
2022/03/17 00:39:12;;;;;;;35.80;24.27;;;8.00;1.00;;;;;;5065165;28;20184;-58
2022/03/17 00:41:38;;;;;;;35.53;24.67;;;8.00;1.00;;;;;;5065548;28;20497;-59
2022/03/17 00:44:04;;;;;;;34.77;24.07;;;8.00;1.00;;;;;;5069301;28;20183;-58
2022/03/17 00:46:30;;;;;;;38.47;24.07;;;7.90;1.00;;;;;;5068365;28;20196;-59
2022/03/17 00:48:55;;;;;;;34.90;23.80;;;7.80;1.00;;;;;;5066911;28;20461;-59
2022/03/17 00:51:21;;;;;;;37.30;25.60;;;7.80;1.00;;;;;;5060203;28;20496;-58
2022/03/17 00:53:46;;;;;;;34.00;22.00;;;7.80;1.00;;;;;;5063816;28;20283;-59
2022/03/17 00:56:12;;;;;;;35.87;25.10;;;7.70;1.00;;;;;;5066673;28;20223;-59
2022/03/17 00:58:38;;;;;;;34.27;24.13;;;7.70;1.00;;;;;;5072703;28;20585;-59
2022/03/17 01:01:08;;;;;;;33.07;24.10;;;7.70;1.00;;;;;;5069799;28;20640;-62
2022/03/17 01:03:33;;;;;;;34.10;24.40;;;7.70;1.00;;;;;;5067380;28;20618;-59
2022/03/17 01:05:59;;;;;;;35.10;24.43;;;7.60;1.00;;;;;;5064904;28;20552;-59
2022/03/17 01:08:24;;;;;;;36.23;24.27;;;7.70;1.00;;;;;;5068251;28;20194;-59
2022/03/17 01:10:50;;;;;;;33.77;23.77;;;7.80;1.00;;;;;;5070113;28;20187;-59
2022/03/17 01:13:16;;;;;;;34.80;24.87;;;7.70;1.00;;;;;;5062130;28;20192;-58
2022/03/17 01:15:41;;;;;;;36.30;24.70;;;7.80;1.00;;;;;;5069144;28;20548;-60
2022/03/17 01:18:07;;;;;;;34.20;23.30;;;7.70;1.00;;;;;;5067682;28;20196;-58
2022/03/17 01:20:33;;;;;;;32.33;23.10;;;7.80;1.00;;;;;;5068227;28;20171;-59
2022/03/17 01:22:58;;;;;;;38.10;25.70;;;7.80;1.00;;;;;;5065978;28;20184;-59
2022/03/17 01:25:24;;;;;;;37.07;24.80;;;7.80;1.00;;;;;;5045408;28;20196;-59
2022/03/17 01:27:49;;;;;;;31.30;22.30;;;7.70;1.00;;;;;;5066707;28;20187;-59
2022/03/17 01:30:15;;;;;;;33.70;23.20;;;7.70;1.00;;;;;;5063064;28;20510;-59
2022/03/17 01:32:41;;;;;;;36.07;24.87;;;7.60;1.00;;;;;;5066025;28;20187;-59
2022/03/17 01:35:08;;;;;;;31.67;23.70;;;7.60;1.00;;;;;;5067267;28;20467;-58
2022/03/17 01:37:35;;;;;;;38.10;24.40;;;7.60;1.00;;;;;;5069558;28;20187;-59
2022/03/17 01:40:00;;;;;;;33.00;24.10;;;7.60;1.00;;;;;;5067483;28;20528;-59
2022/03/17 01:42:26;;;;;;;36.80;25.60;;;7.70;1.00;;;;;;5064023;28;20545;-59
2022/03/17 01:44:52;;;;;;;35.57;23.90;;;7.70;1.00;;;;;;5065730;28;20260;-59
2022/03/17 01:47:31;;;;;;;38.00;27.30;;;7.70;1.00;;;;;;5065998;28;20183;-59
2022/03/17 01:49:58;;;;;;;37.33;25.00;;;7.70;1.00;;;;;;5067606;28;20195;-58
2022/03/17 01:52:24;;;;;;;31.97;22.50;;;7.60;1.00;;;;;;5065005;28;20460;-60
2022/03/17 01:54:50;;;;;;;30.60;23.90;;;7.60;1.00;;;;;;5065147;28;20453;-59
2022/03/17 01:57:18;;;;;;;34.00;24.67;;;7.60;1.00;;;;;;5066340;28;20584;-58
2022/03/17 01:59:44;;;;;;;38.47;24.53;;;7.80;1.00;;;;;;5066225;28;20190;-59
2022/03/17 02:02:12;;;;;;;33.17;25.07;;;7.70;1.00;;;;;;5065398;28;20473;-59
2022/03/17 02:04:40;;;;;;;33.23;24.00;;;7.70;1.00;;;;;;5064545;28;20202;-58
2022/03/17 02:07:06;;;;;;;35.80;24.67;;;7.70;1.00;;;;;;5068434;28;20444;-59
2022/03/17 02:09:33;;;;;;;37.20;25.10;;;7.60;1.00;;;;;;5066685;28;20454;-59
2022/03/17 02:15:13;;;;;;;32.00;23.57;;;7.50;1.00;;;;;;5064596;28;22450;-58
2022/03/17 02:17:40;;;;;;;41.47;27.77;;;7.50;1.00;;;;;;5057222;28;20518;-58
2022/03/17 02:20:09;;;;;;;34.30;24.17;;;7.50;1.00;;;;;;5068719;28;20520;-59
2022/03/17 02:22:41;;;;;;;33.57;24.17;;;8.30;1.00;;;;;;5071612;28;20453;-60
2022/03/17 02:27:51;;;;;;;37.50;24.20;;;7.40;1.00;;;;;;5071422;28;20540;-59
2022/03/17 02:30:19;;;;;;;34.40;23.60;;;7.30;1.00;;;;;;5071080;28;20453;-58
2022/03/17 02:32:45;;;;;;;33.87;23.97;;;7.30;1.00;;;;;;5071776;28;20548;-58
2022/03/17 02:35:22;;;;;;;35.93;24.13;;;7.20;1.00;;;;;;5069872;28;20465;-57
2022/03/17 02:37:48;;;;;;;34.60;24.80;;;7.20;1.00;;;;;;5070004;28;22092;-59
2022/03/17 02:40:14;;;;;;;34.50;23.63;;;7.20;1.00;;;;;;5068410;28;20582;-59
2022/03/17 02:42:42;;;;;;;36.87;26.40;;;7.20;1.00;;;;;;5071113;28;20445;-60
2022/03/17 02:45:10;;;;;;;38.70;25.50;;;7.20;1.00;;;;;;5069218;28;20187;-58
2022/03/17 02:47:37;;;;;;;33.53;24.90;;;7.20;1.00;;;;;;5065933;28;20452;-59
2022/03/17 02:50:03;;;;;;;42.30;25.90;;;7.20;1.00;;;;;;5064533;28;20449;-58
2022/03/17 02:52:29;;;;;;;34.70;24.40;;;7.30;1.00;;;;;;5071113;28;21003;-58
2022/03/17 02:54:56;;;;;;;34.27;24.50;;;7.30;1.00;;;;;;5068585;28;20479;-59
2022/03/17 02:57:22;;;;;;;39.63;27.27;;;7.20;1.00;;;;;;5068818;28;20530;-60
2022/03/17 02:59:54;;;;;;;37.83;26.17;;;7.20;1.00;;;;;;5070285;28;20460;-58
2022/03/17 03:02:22;;;;;;;34.90;25.63;;;7.20;1.00;;;;;;5066736;28;20480;-58
2022/03/17 03:04:48;;;;;;;36.87;24.80;;;7.20;1.00;;;;;;5068903;28;20469;-59
2022/03/17 03:07:14;;;;;;;39.53;26.17;;;7.30;1.00;;;;;;5069188;28;20495;-59
2022/03/17 03:09:40;;;;;;;35.30;25.53;;;7.30;1.00;;;;;;5068914;28;20456;-59
2022/03/17 03:12:06;;;;;;;36.70;25.10;;;7.30;1.00;;;;;;5068842;28;20194;-59
2022/03/17 03:14:32;;;;;;;34.90;25.17;;;7.30;1.00;;;;;;5069028;28;20449;-59
2022/03/17 03:16:58;;;;;;;35.70;24.77;;;7.30;1.00;;;;;;5070146;28;20560;-58
2022/03/17 03:19:23;;;;;;;37.47;25.70;;;7.20;1.00;;;;;;5068695;28;20990;-59
2022/03/17 03:21:49;;;;;;;33.67;24.37;;;7.20;1.00;;;;;;5068411;28;20478;-59
2022/03/17 03:24:15;;;;;;;34.70;23.30;;;7.20;1.00;;;;;;5069826;28;20215;-58
2022/03/17 03:26:42;;;;;;;39.20;26.30;;;7.30;1.00;;;;;;5070938;28;20225;-60
2022/03/17 03:29:17;;;;;;;36.17;24.97;;;7.20;1.00;;;;;;5069327;28;20445;-59
2022/03/17 03:31:42;;;;;;;37.83;25.13;;;7.30;1.00;;;;;;5069060;28;20449;-59
2022/03/17 03:34:08;;;;;;;35.03;23.97;;;7.20;1.00;;;;;;5068759;28;20921;-59
2022/03/17 03:39:18;;;;;;;37.13;25.90;;;7.20;1.00;;;;;;5068715;28;20183;-59
2022/03/17 03:41:43;;;;;;;30.83;24.30;;;7.20;1.00;;;;;;5071583;28;20441;-59
2022/03/17 03:44:12;;;;;;;37.30;25.23;;;7.20;1.00;;;;;;5070919;28;20579;-58
2022/03/17 03:46:38;;;;;;;36.77;24.47;;;7.30;1.00;;;;;;5070327;28;20176;-58
2022/03/17 03:49:03;;;;;;;36.23;24.60;;;7.20;1.00;;;;;;5070279;28;20455;-59
2022/03/17 03:51:29;;;;;;;43.23;26.60;;;7.20;1.00;;;;;;5071512;28;20191;-59
2022/03/17 03:54:13;;;;;;;36.10;27.00;;;7.20;1.00;;;;;;5070114;28;20199;-59
2022/03/17 03:56:49;;;;;;;43.87;26.43;;;7.20;1.00;;;;;;5068284;28;20199;-59
2022/03/17 03:59:20;;;;;;;40.40;26.53;;;7.30;1.00;;;;;;5068536;28;20951;-59
2022/03/17 04:01:48;;;;;;;35.00;26.10;;;7.30;1.00;;;;;;5069846;28;20448;-59
2022/03/17 04:04:20;;;;;;;43.03;28.17;;;7.30;1.00;;;;;;5065817;28;20927;-60
2022/03/17 04:06:47;;;;;;;34.73;25.30;;;7.40;1.00;;;;;;5069757;28;20533;-59
2022/03/17 04:09:14;;;;;;;42.20;26.53;;;7.30;1.00;;;;;;5068978;28;20461;-58
2022/03/17 04:11:41;;;;;;;37.77;25.13;;;7.40;1.00;;;;;;5068155;28;20458;-59
2022/03/17 04:14:07;;;;;;;37.77;27.27;;;7.40;1.00;;;;;;5067816;28;20514;-59
2022/03/17 04:16:34;;;;;;;41.77;28.47;;;7.40;1.00;;;;;;5067028;28;20955;-59
2022/03/17 04:18:59;;;;;;;42.53;29.10;;;7.40;1.00;;;;;;5069033;28;20916;-59
2022/03/17 04:21:25;;;;;;;38.00;26.33;;;7.40;1.00;;;;;;5070259;28;20480;-58
2022/03/17 04:23:51;;;;;;;39.50;28.17;;;7.30;1.00;;;;;;5051638;28;20321;-59
2022/03/17 04:26:17;;;;;;;41.50;28.77;;;7.40;1.00;;;;;;5067478;28;20454;-59
2022/03/17 04:28:42;;;;;;;41.17;28.83;;;7.40;1.00;;;;;;5068956;28;20191;-60
2022/03/17 04:31:08;;;;;;;43.33;30.07;;;7.40;1.00;;;;;;5068796;28;20195;-60
2022/03/17 04:33:34;;;;;;;48.70;30.27;;;7.40;1.00;;;;;;5069052;28;20275;-58
2022/03/17 04:36:02;;;;;;;44.60;29.90;;;7.40;1.00;;;;;;5068238;28;20211;-58
2022/03/17 04:38:31;;;;;;;47.83;30.23;;;7.40;1.00;;;;;;5069850;28;20218;-59
2022/03/17 04:40:57;;;;;;;45.00;30.80;;;7.40;1.00;;;;;;5069743;28;20449;-57
2022/03/17 04:43:23;;;;;;;40.23;27.93;;;7.40;1.00;;;;;;5064644;28;22233;-58
2022/03/17 04:45:48;;;;;;;49.57;31.87;;;7.50;1.00;;;;;;5065788;28;20187;-58
2022/03/17 04:48:14;;;;;;;43.30;29.33;;;7.50;1.00;;;;;;5068031;28;20222;-59
2022/03/17 04:50:40;;;;;;;45.67;31.80;;;7.50;1.00;;;;;;5067327;28;20246;-60
2022/03/17 04:55:51;;;;;;;46.27;31.43;;;7.50;1.00;;;;;;5071025;28;20576;-61
2022/03/17 04:58:17;;;;;;;47.27;30.07;;;7.50;1.00;;;;;;5070471;28;20446;-62
2022/03/17 05:00:42;;;;;;;42.87;28.90;;;7.40;1.00;;;;;;5068641;28;20442;-62
2022/03/17 05:03:08;;;;;;;42.60;29.30;;;7.40;1.00;;;;;;5069372;28;20306;-62
2022/03/17 05:05:34;;;;;;;46.43;31.10;;;7.40;1.00;;;;;;5070996;28;20197;-62
2022/03/17 05:08:00;;;;;;;38.13;27.43;;;;;;;;;;5070249;28;20453;-63
2022/03/17 05:10:28;;;;;;;46.23;32.40;;;7.50;1.00;;;;;;5068512;28;20187;-59
2022/03/17 05:12:54;;;;;;;45.83;31.97;;;7.50;1.00;;;;;;5067986;28;20922;-60
2022/03/17 05:15:20;;;;;;;48.50;31.53;;;7.50;1.00;;;;;;5068308;28;20469;-59
2022/03/17 05:17:47;;;;;;;44.67;29.10;;;7.60;1.00;;;;;;5070951;28;20434;-60
2022/03/17 05:20:13;;;;;;;42.90;30.13;;;7.50;1.00;;;;;;5070468;28;20278;-60
2022/03/17 05:22:42;;;;;;;40.00;29.67;;;7.50;1.00;;;;;;5069441;28;21000;-61
2022/03/17 05:25:09;;;;;;;50.33;31.97;;;7.50;1.00;;;;;;5069990;28;20974;-60
2022/03/17 05:27:46;;;;;;;44.00;32.03;;;7.60;1.00;;;;;;5070655;28;20958;-60
2022/03/17 05:30:13;;;;;;;43.93;32.77;;;7.60;1.00;;;;;;5069358;28;20441;-60
2022/03/17 05:32:40;;;;;;;46.80;32.90;;;7.60;1.00;;;;;;5068230;28;20453;-60
2022/03/17 05:35:07;;;;;;;51.33;34.83;;;7.60;1.00;;;;;;5068863;28;20477;-60
2022/03/17 05:37:34;;;;;;;47.10;32.83;;;7.60;1.00;;;;;;5069121;28;20487;-61
2022/03/17 05:40:01;;;;;;;50.17;34.60;;;7.70;1.00;;;;;;5071883;28;20449;-61
2022/03/17 05:42:27;;;;;;;48.03;32.60;;;7.70;1.00;;;;;;5068371;28;20496;-62
2022/03/17 05:44:54;;;;;;;50.77;33.47;;;7.70;1.00;;;;;;5069728;28;20449;-61
2022/03/17 05:47:20;;;;;;;52.80;35.43;;;7.70;1.00;;;;;;5068207;28;20232;-60
2022/03/17 05:49:47;;;;;;;44.67;31.57;;;6.70;1.00;;;;;;5070271;28;20453;-60
2022/03/17 05:52:13;;;;;;;47.07;33.90;;;7.80;1.00;;;;;;5050954;28;20629;-59
2022/03/17 05:54:38;;;;;;;46.40;32.43;;;8.00;1.00;;;;;;5068573;28;20446;-59
2022/03/17 05:57:04;;;;;;;46.87;34.20;;;8.10;1.00;;;;;;5066693;28;20442;-60
2022/03/17 05:59:30;;;;;;;54.13;35.20;;;8.10;1.00;;;;;;5069813;28;20183;-60
2022/03/17 06:01:56;;;;;;;49.07;33.90;;;8.10;1.00;;;;;;5068669;28;20183;-60
2022/03/17 06:04:21;;;;;;;45.63;32.97;;;8.30;1.00;;;;;;5069574;28;20206;-61
2022/03/17 06:06:47;;;;;;;49.83;33.80;;;8.40;1.00;;;;;;5070831;28;20581;-61
2022/03/17 06:09:12;;;;;;;50.63;34.73;;;8.50;1.00;;;;;;5070060;28;20187;-61
2022/03/17 06:11:38;;;;;;;51.50;33.10;;;8.50;1.00;;;;;;5067080;28;20194;-60
2022/03/17 06:14:03;;;;;;;51.80;35.13;;;8.50;1.00;;;;;;5069090;28;20187;-62
2022/03/17 06:16:29;;;;;;;49.60;35.40;;;8.70;1.00;;;;;;5067505;28;20310;-61
2022/03/17 06:18:54;;;;;;;48.27;33.63;;;8.80;1.00;;;;;;5067186;28;20191;-61
2022/03/17 06:21:20;;;;;;;50.67;32.77;;;8.90;1.00;;;;;;5067817;28;20195;-62
2022/03/17 06:23:45;;;;;;;45.57;33.63;;;8.90;1.00;;;;;;5067850;28;20187;-62
2022/03/17 06:26:11;;;;;;;48.53;34.40;;;8.90;1.00;;;;;;5069221;28;20633;-61
2022/03/17 06:28:36;;;;;;;47.80;33.57;;;8.90;1.00;;;;;;5063131;28;20222;-61
2022/03/17 06:31:05;;;;;;;45.70;32.80;;;8.80;1.00;;;;;;5068155;28;20665;-61
2022/03/17 06:33:31;;;;;;;48.40;34.10;;;8.80;1.00;;;;;;5068556;28;20963;-60
2022/03/17 06:35:56;;;;;;;48.67;34.57;;;8.80;1.00;;;;;;5069327;28;20489;-61
2022/03/17 06:38:22;;;;;;;49.73;34.10;;;8.80;1.00;;;;;;5069023;28;20188;-60
2022/03/17 06:40:47;;;;;;;44.90;34.13;;;9.00;1.00;;;;;;5069335;28;20680;-60
2022/03/17 06:43:16;;;;;;;48.80;33.70;;;9.00;1.00;;;;;;5064201;28;20186;-61
2022/03/17 06:45:42;;;;;;;49.50;35.50;;;9.10;1.00;;;;;;5069153;28;20187;-60
2022/03/17 06:48:08;;;;;;;45.40;34.33;;;9.20;1.00;;;;;;5049933;28;20457;-61
2022/03/17 06:50:34;;;;;;;56.13;37.73;;;8.80;1.00;;;;;;5067065;28;20456;-60
2022/03/17 06:53:00;;;;;;;52.30;35.57;;;9.30;1.00;;;;;;5065530;28;20195;-60
2022/03/17 06:55:25;;;;;;;51.17;35.90;;;9.40;1.00;;;;;;5069948;28;20215;-60
2022/03/17 06:57:51;;;;;;;49.57;34.97;;;9.60;1.00;;;;;;5064986;28;20905;-61
2022/03/17 07:00:19;;;;;;;53.23;36.70;;;9.70;1.00;;;;;;5065271;28;20177;-60
2022/03/17 07:02:45;;;;;;;48.47;35.23;;;9.80;1.00;;;;;;5066024;28;20499;-60
2022/03/17 07:05:11;;;;;;;46.03;33.70;;;9.90;1.00;;;;;;5065553;28;20566;-61
2022/03/17 07:07:38;;;;;;;48.20;36.90;;;9.90;1.00;;;;;;5068262;28;20453;-59
2022/03/17 07:10:08;;;;;;;50.90;37.73;;;10.00;1.00;;;;;;5067792;28;20474;-60
2022/03/17 07:12:36;;;;;;;46.00;33.90;;;9.90;1.00;;;;;;5068038;28;20783;-61
2022/03/17 07:15:02;;;;;;;52.50;34.10;;;10.00;1.00;;;;;;5072534;28;20472;-60
2022/03/17 07:17:40;;;;;;;52.03;35.93;;;9.90;1.00;;;;;;5071841;28;20961;-60
2022/03/17 07:20:08;;;;;;;51.50;36.57;;;10.10;1.00;;;;;;5070608;28;20795;-59
2022/03/17 07:22:34;;;;;;;49.40;34.50;;;10.20;1.00;;;;;;5071341;28;20452;-60
2022/03/17 07:24:59;;;;;;;54.60;37.00;;;10.20;1.00;;;;;;5072063;28;20775;-60
2022/03/17 07:27:25;;;;;;;54.83;37.00;;;10.30;1.00;;;;;;5069471;28;20183;-62
2022/03/17 07:29:51;;;;;;;49.43;35.10;;;10.40;1.00;;;;;;5070997;28;20259;-61
2022/03/17 07:32:18;;;;;;;51.00;37.07;;;10.50;1.00;;;;;;5071722;28;20572;-60
2022/03/17 07:34:45;;;;;;;51.10;36.43;;;10.50;1.00;;;;;;5069871;28;20446;-60
2022/03/17 07:37:11;;;;;;;50.20;35.53;;;10.60;1.00;;;;;;5072192;28;20454;-59
2022/03/17 07:39:36;;;;;;;44.87;34.20;;;10.70;1.00;;;;;;5071826;28;20736;-60
2022/03/17 07:42:04;;;;;;;46.47;34.60;;;10.70;1.00;;;;;;5071328;28;20684;-61
2022/03/17 07:44:30;;;;;;;47.13;35.77;;;10.90;1.00;;;;;;5070249;28;20533;-60
2022/03/17 07:46:56;;;;;;;50.17;37.87;;;11.10;1.00;;;;;;5074335;28;20495;-61
2022/03/17 07:49:22;;;;;;;46.83;35.00;;;11.10;1.00;;;;;;5071618;28;20446;-61
2022/03/17 07:51:48;;;;;;;45.83;33.30;;;11.10;1.00;;;;;;5071970;28;20446;-61
2022/03/17 07:54:13;;;;;;;51.50;35.67;;;11.20;1.00;;;;;;5070890;28;20498;-61
2022/03/17 07:56:40;;;;;;;44.87;34.27;;;11.30;1.00;;;;;;5070478;28;20212;-61
2022/03/17 07:59:07;;;;;;;48.77;36.07;;;11.30;1.00;;;;;;5070760;28;20172;-61
2022/03/17 08:01:33;;;;;;;46.17;35.60;;;11.40;1.00;;;;;;5049911;28;20531;-62
2022/03/17 08:03:58;;;;;;;51.97;36.13;;;11.60;1.00;;;;;;5072038;28;20461;-63
2022/03/17 08:06:25;;;;;;;45.87;35.60;;;11.70;1.00;;;;;;5071064;28;20191;-61
2022/03/17 08:08:51;;;;;;;41.53;33.53;;;11.70;1.00;;;;;;5068814;28;20195;-61
2022/03/17 08:11:17;;;;;;;48.10;35.90;;;11.80;1.00;;;;;;5072407;28;20854;-62
2022/03/17 08:13:42;;;;;;;47.07;34.17;;;11.80;1.00;;;;;;5071814;28;20329;-61
2022/03/17 08:16:10;;;;;;;48.27;36.00;;;11.80;1.00;;;;;;5071790;28;20203;-62
2022/03/17 08:18:36;;;;;;;45.17;36.07;;;11.70;1.00;;;;;;5071896;28;20179;-61
2022/03/17 08:21:05;;;;;;;50.13;34.73;;;11.70;1.00;;;;;;5071520;28;20433;-61
2022/03/17 08:23:32;;;;;;;46.70;33.87;;;;;;;;;;5072027;28;20580;-61
2022/03/17 08:25:57;;;;;;;51.37;36.90;;;11.80;1.00;;;;;;5071613;28;20517;-61
2022/03/17 08:28:24;;;;;;;44.90;34.97;;;11.80;1.00;;;;;;5071874;28;20524;-61
2022/03/17 08:30:51;;;;;;;52.63;37.67;;;11.70;1.00;;;;;;5053326;28;20194;-62
2022/03/17 08:33:17;;;;;;;49.43;37.07;;;11.80;1.00;;;;;;5073958;28;20508;-61
2022/03/17 08:35:44;;;;;;;47.57;35.23;;;11.90;1.00;;;;;;5071442;28;20469;-61
2022/03/17 08:38:10;;;;;;;50.57;35.80;;;11.90;1.00;;;;;;5071185;28;20433;-61
2022/03/17 08:40:38;;;;;;;49.73;33.77;;;11.90;1.00;;;;;;5071576;28;20469;-62
2022/03/17 08:43:05;;;;;;;46.30;36.33;;;11.80;1.00;;;;;;5071244;28;20487;-60
2022/03/17 08:50:59;;;;;;;48.30;35.37;;;11.90;1.00;;;;;;5071242;28;20791;-62
2022/03/17 08:53:24;;;;;;;50.50;36.07;;;12.10;1.00;;;;;;5053197;28;20443;-61
2022/03/17 08:55:51;;;;;;;53.80;38.60;;;12.20;1.00;;;;;;5071071;28;20209;-61
2022/03/17 08:58:17;;;;;;;48.40;36.37;;;12.30;1.00;;;;;;5070867;28;20179;-60
2022/03/17 09:00:43;;;;;;;48.00;35.80;;;12.30;1.00;;;;;;5071194;28;21292;-62
2022/03/17 09:03:09;;;;;;;51.00;36.60;;;12.40;1.00;;;;;;5069988;28;20227;-60
2022/03/17 09:05:35;;;;;;;47.37;33.93;;;12.60;1.00;;;;;;5070961;28;20495;-62
2022/03/17 09:08:04;;;;;;;51.30;37.03;;;12.60;1.00;;;;;;5071112;28;20241;-61
2022/03/17 09:10:31;;;;;;;46.70;35.13;;;12.80;1.00;;;;;;5070477;28;20449;-62
2022/03/17 09:12:57;;;;;;;46.90;36.60;;;12.80;1.00;;;;;;5052914;28;20448;-60
2022/03/17 09:15:30;;;;;;;46.37;35.83;;;12.80;1.00;;;;;;5070564;28;20530;-61
2022/03/17 09:17:56;;;;;;;47.27;36.10;;;12.80;1.00;;;;;;5071106;28;20444;-61
2022/03/17 09:20:21;;;;;;;49.00;37.67;;;12.80;1.00;;;;;;5069041;28;20884;-62
2022/03/17 09:22:49;;;;;;;46.90;36.83;;;;;;;;;;5070547;28;20187;-62
2022/03/17 09:25:17;;;;;;;47.77;35.87;;;13.00;1.00;;;;;;5070539;28;20175;-61
2022/03/17 09:27:43;;;;;;;44.97;35.43;;;13.00;1.00;;;;;;5072132;28;20442;-62
2022/03/17 09:30:09;;;;;;;45.13;36.47;;;13.10;1.00;;;;;;5070712;28;20442;-61
2022/03/17 09:32:35;;;;;;;48.57;35.83;;;13.10;1.00;;;;;;5070566;28;20246;-61
2022/03/17 09:35:02;;;;;;;43.97;35.17;;;13.20;1.00;;;;;;5070541;28;20949;-62
2022/03/17 09:37:28;;;;;;;49.60;36.80;;;;;;;;;;5070221;28;20825;-61
2022/03/17 09:39:54;;;;;;;41.90;34.83;;;13.40;1.00;;;;;;5070613;28;20437;-61
2022/03/17 09:42:21;;;;;;;43.07;35.93;;;13.50;1.00;;;;;;5070437;28;20434;-61
2022/03/17 09:44:52;;;;;;;41.07;33.87;;;13.50;1.00;;;;;;5070350;28;20215;-61
2022/03/17 09:47:19;;;;;;;49.00;35.20;;;13.40;1.00;;;;;;5070408;28;20436;-62
2022/03/17 09:49:46;;;;;;;50.20;36.97;;;13.40;1.00;;;;;;5068879;28;20495;-61
2022/03/17 09:52:16;;;;;;;41.23;33.77;;;13.50;1.00;;;;;;5070430;28;20434;-61
2022/03/17 09:54:42;;;;;;;41.10;34.30;;;13.40;1.00;;;;;;5070168;28;20945;-61
2022/03/17 09:57:08;;;;;;;48.70;34.43;;;13.50;1.00;;;;;;5070224;28;20468;-61
2022/03/17 09:59:34;;;;;;;42.97;35.07;;;13.50;1.00;;;;;;5068296;28;20433;-61
2022/03/17 10:02:00;;;;;;;39.83;34.57;;;;;;;;;;5069619;28;20461;-60
2022/03/17 10:04:35;;;;;;;44.53;34.87;;;13.60;1.00;;;;;;5070328;28;20476;-61
2022/03/17 10:07:01;;;;;;;44.10;34.63;;;13.80;1.00;;;;;;5052088;28;20437;-62
2022/03/17 10:09:29;;;;;;;43.23;34.23;;;14.00;1.00;;;;;;5050648;28;20445;-61
2022/03/17 10:12:06;;;;;;;47.23;36.10;;;14.10;1.00;;;;;;5070197;28;20179;-61
2022/03/17 10:14:46;;;;;;;39.87;33.47;;;14.10;1.00;;;;;;5070066;28;20437;-61
2022/03/17 10:17:31;;;;;;;44.27;34.30;;;14.10;1.00;;;;;;5052230;28;20567;-61
2022/03/17 10:20:25;;;;;;;44.83;34.93;;;14.10;1.00;;;;;;5051961;28;20457;-62
2022/03/17 10:22:50;;;;;;;42.90;34.20;;;14.30;1.00;;;;;;5060078;28;20891;-61
2022/03/17 10:25:21;;;;;;;41.97;33.00;;;14.40;1.00;;;;;;5051986;28;20472;-61
2022/03/17 10:27:49;;;;;;;39.23;33.20;;;14.40;1.00;;;;;;5069723;28;20577;-62
2022/03/17 10:30:21;;;;;;;41.93;36.13;;;14.40;1.00;;;;;;5069831;28;20437;-61
2022/03/17 10:32:58;;;;;;;38.80;32.97;;;14.40;1.00;;;;;;5070116;28;20433;-61
2022/03/17 10:35:25;;;;;;;39.07;31.60;;;14.40;1.00;;;;;;5065164;28;20469;-61
2022/03/17 10:37:51;;;;;;;42.07;31.20;;;14.50;1.00;;;;;;5069521;28;20593;-61
2022/03/17 10:40:16;;;;;;;36.87;31.87;;;14.40;1.00;;;;;;5071915;28;20437;-61
2022/03/17 10:42:42;;;;;;;44.87;32.50;;;14.60;1.00;;;;;;5073439;28;20425;-61
2022/03/17 10:45:08;;;;;;;41.10;31.77;;;14.80;1.00;;;;;;5073402;28;20191;-62
2022/03/17 10:47:42;;;;;;;40.03;31.90;;;14.80;1.00;;;;;;5073796;28;20187;-62
2022/03/17 10:50:20;;;;;;;34.90;30.77;;;14.90;1.00;;;;;;5073457;28;20762;-60
2022/03/17 10:52:57;;;;;;;41.80;31.87;;;14.90;1.00;;;;;;5073234;28;20525;-62
2022/03/17 10:55:25;;;;;;;39.93;29.07;;;15.10;1.00;;;;;;5073151;28;20954;-61
2022/03/17 10:57:54;;;;;;;36.70;32.67;;;15.00;1.00;;;;;;5057003;28;20444;-61
2022/03/17 11:00:27;;;;;;;36.37;30.67;;;14.90;1.00;;;;;;5073108;28;20958;-61
2022/03/17 11:02:58;;;;;;;41.50;32.90;;;14.90;1.00;;;;;;5054675;28;20851;-61
2022/03/17 11:05:26;;;;;;;39.13;32.70;;;14.90;1.00;;;;;;5073308;28;20569;-62
2022/03/17 11:07:54;;;;;;;37.20;31.60;;;15.00;1.00;;;;;;5072877;28;21245;-62
2022/03/17 11:10:22;;;;;;;37.97;29.10;;;15.20;1.00;;;;;;5072955;28;20434;-62
2022/03/17 11:12:49;;;;;;;35.50;30.67;;;15.20;1.00;;;;;;5072674;28;20614;-61
2022/03/17 11:15:23;;;;;;;38.30;30.67;;;15.20;1.00;;;;;;5071569;28;20633;-62
2022/03/17 11:17:50;;;;;;;34.53;29.47;;;15.30;1.00;;;;;;5073063;28;20445;-61
2022/03/17 11:20:23;;;;;;;36.07;29.80;;;15.40;1.00;;;;;;5072631;28;20440;-61
2022/03/17 11:23:16;;;;;;;35.23;27.87;;;15.40;1.00;;;;;;5072940;28;20481;-61
2022/03/17 11:25:58;;;;;;;33.60;29.80;;;15.50;1.00;;;;;;5074560;28;21010;-61
2022/03/17 11:28:35;;;;;;;37.53;27.50;;;14.30;1.00;;;;;;5079099;28;20452;-61
2022/03/17 11:31:05;;;;;;;35.07;29.20;;;15.60;1.00;;;;;;5072322;28;20520;-61
2022/03/17 11:33:35;;;;;;;33.80;27.87;;;15.60;1.00;;;;;;5076647;28;20525;-61
2022/03/17 11:36:24;;;;;;;34.00;27.47;;;15.60;1.00;;;;;;5072716;28;20542;-60
2022/03/17 11:38:59;;;;;;;33.47;26.30;;;15.50;1.00;;;;;;5072856;28;20441;-61
2022/03/17 11:41:26;;;;;;;30.83;25.77;;;15.60;1.00;;;;;;5072215;28;20528;-60
2022/03/17 11:43:52;;;;;;;32.13;26.97;;;15.60;1.00;;;;;;5072694;28;20441;-61
2022/03/17 11:46:21;;;;;;;29.70;25.43;;;15.70;1.00;;;;;;5072253;28;20482;-61
2022/03/17 11:48:54;;;;;;;28.40;24.90;;;15.80;1.00;;;;;;5072487;28;20229;-62
2022/03/17 11:51:20;;;;;;;28.80;24.10;;;15.90;1.00;;;;;;5053475;28;20441;-62
2022/03/17 11:53:52;;;;;;;28.23;24.80;;;16.00;1.00;;;;;;5073444;28;20471;-61
2022/03/17 11:56:37;;;;;;;28.57;23.77;;;16.10;1.00;;;;;;5072124;28;20500;-61
2022/03/17 11:59:05;;;;;;;27.57;24.10;;;16.20;1.00;;;;;;5072335;28;20502;-61
2022/03/17 12:01:42;;;;;;;30.10;24.80;;;16.40;1.00;;;;;;5071988;28;20480;-63
2022/03/17 12:04:18;;;;;;;27.10;22.93;;;16.50;1.00;;;;;;5070808;28;20469;-60
2022/03/17 12:06:53;;;;;;;33.60;24.10;;;16.60;1.00;;;;;;5071835;28;20779;-62
2022/03/17 12:09:35;;;;;;;29.00;25.10;;;16.80;1.00;;;;;;5072091;28;20441;-60
2022/03/17 12:12:00;;;;;;;27.43;24.00;;;16.80;1.00;;;;;;5072031;28;20488;-61
2022/03/17 12:14:27;;;;;;;26.90;23.63;;;16.80;1.00;;;;;;5071738;28;20441;-61
2022/03/17 12:16:54;;;;;;;28.30;24.57;;;16.90;1.00;;;;;;5071733;28;20206;-62
2022/03/17 12:19:38;;;;;;;27.60;21.43;;;17.20;1.00;;;;;;5071801;28;20438;-62
2022/03/17 12:22:21;;;;;;;26.17;22.80;;;17.20;1.00;;;;;;5072017;28;20503;-61
2022/03/17 12:24:53;;;;;;;26.43;22.07;;;17.20;1.00;;;;;;5071283;28;20444;-62
2022/03/17 12:27:30;;;;;;;32.50;23.07;;;17.30;1.00;;;;;;5053726;28;20429;-61
2022/03/17 12:30:11;;;;;;;23.70;21.17;;;17.50;1.00;;;;;;5071650;28;20934;-61
2022/03/17 12:32:44;;;;;;;23.30;20.27;;;17.50;1.00;;;;;;5071340;28;20418;-62
2022/03/17 12:35:10;;;;;;;25.20;22.10;;;17.60;1.00;;;;;;5071421;28;20453;-61
2022/03/17 12:37:37;;;;;;;23.47;21.00;;;17.60;1.00;;;;;;5071496;28;20425;-61
2022/03/17 12:40:05;;;;;;;25.80;21.63;;;17.50;1.00;;;;;;5071217;28;20433;-62
2022/03/17 12:42:37;;;;;;;22.23;19.90;;;17.30;1.00;;;;;;5071124;28;20439;-61
2022/03/17 12:45:05;;;;;;;21.20;18.93;;;17.40;1.00;;;;;;5071181;28;20434;-62
2022/03/17 12:47:36;;;;;;;25.20;19.03;;;17.40;1.00;;;;;;5070895;28;20416;-62
2022/03/17 12:50:08;;;;;;;22.80;19.83;;;17.10;1.00;;;;;;5072659;28;20467;-61
2022/03/17 12:52:35;;;;;;;21.60;19.10;;;17.00;1.00;;;;;;5071088;28;20802;-62
2022/03/17 12:55:03;;;;;;;24.43;20.27;;;17.00;1.00;;;;;;5052926;28;20504;-61
2022/03/17 12:57:30;;;;;;;23.93;21.10;;;16.80;1.00;;;;;;5071008;28;20900;-62
2022/03/17 12:59:57;;;;;;;20.80;18.10;;;16.80;1.00;;;;;;5070741;28;20442;-61
2022/03/17 13:02:23;;;;;;;19.77;17.63;;;16.80;1.00;;;;;;5069823;28;20457;-62